sensor_id;sensor_type;location;lat;lon;timestamp;temperature;humidity
48946;DHT22;34999;50.940;3.998;2023-11-21T00:00:07;7.50;99.90
48946;DHT22;34999;50.940;3.998;2023-11-21T00:05:48;7.50;99.90
48946;DHT22;34999;50.940;3.998;2023-11-21T00:08:16;7.50;99.90
48946;DHT22;34999;50.940;3.998;2023-11-21T00:10:45;7.50;99.90
48946;DHT22;34999;50.940;3.998;2023-11-21T00:13:14;7.50;99.90
48946;DHT22;34999;50.940;3.998;2023-11-21T00:15:46;7.50;99.90
48946;DHT22;34999;50.940;3.998;2023-11-21T00:18:14;7.50;99.90
48946;DHT22;34999;50.940;3.998;2023-11-21T00:20:43;7.50;99.90
48946;DHT22;34999;50.940;3.998;2023-11-21T00:23:11;7.50;99.90
48946;DHT22;34999;50.940;3.998;2023-11-21T00:25:40;7.60;99.90
48946;DHT22;34999;50.940;3.998;2023-11-21T00:28:08;7.60;99.90
48946;DHT22;34999;50.940;3.998;2023-11-21T00:30:36;7.60;99.90
48946;DHT22;34999;50.940;3.998;2023-11-21T00:33:06;7.60;99.90
48946;DHT22;34999;50.940;3.998;2023-11-21T00:35:35;7.70;99.90
48946;DHT22;34999;50.940;3.998;2023-11-21T00:38:03;7.70;99.90
48946;DHT22;34999;50.940;3.998;2023-11-21T00:40:31;7.70;99.90
48946;DHT22;34999;50.940;3.998;2023-11-21T00:42:59;7.70;99.90
48946;DHT22;34999;50.940;3.998;2023-11-21T00:45:30;7.80;99.90
48946;DHT22;34999;50.940;3.998;2023-11-21T00:47:59;7.80;99.90
48946;DHT22;34999;50.940;3.998;2023-11-21T00:50:28;7.80;99.90
48946;DHT22;34999;50.940;3.998;2023-11-21T00:52:57;7.90;99.90
48946;DHT22;34999;50.940;3.998;2023-11-21T00:55:25;7.90;99.90
48946;DHT22;34999;50.940;3.998;2023-11-21T00:57:55;7.90;99.90
48946;DHT22;34999;50.940;3.998;2023-11-21T01:00:23;7.90;99.90
48946;DHT22;34999;50.940;3.998;2023-11-21T01:02:51;8.00;99.90
48946;DHT22;34999;50.940;3.998;2023-11-21T01:05:19;8.00;99.90
48946;DHT22;34999;50.940;3.998;2023-11-21T01:07:49;8.00;99.90
48946;DHT22;34999;50.940;3.998;2023-11-21T01:10:17;8.10;99.90
48946;DHT22;34999;50.940;3.998;2023-11-21T01:12:45;8.10;99.90
48946;DHT22;34999;50.940;3.998;2023-11-21T01:15:17;8.10;99.90
48946;DHT22;34999;50.940;3.998;2023-11-21T01:17:45;8.10;99.90
48946;DHT22;34999;50.940;3.998;2023-11-21T01:20:14;8.20;99.90
48946;DHT22;34999;50.940;3.998;2023-11-21T01:22:42;8.20;99.90
48946;DHT22;34999;50.940;3.998;2023-11-21T01:25:13;8.20;99.90
48946;DHT22;34999;50.940;3.998;2023-11-21T01:27:41;8.20;99.90
48946;DHT22;34999;50.940;3.998;2023-11-21T01:30:10;8.20;99.90
48946;DHT22;34999;50.940;3.998;2023-11-21T01:32:38;8.20;99.90
48946;DHT22;34999;50.940;3.998;2023-11-21T01:35:08;8.20;99.90
48946;DHT22;34999;50.940;3.998;2023-11-21T01:37:38;8.20;99.90
48946;DHT22;34999;50.940;3.998;2023-11-21T01:40:08;8.20;99.90
48946;DHT22;34999;50.940;3.998;2023-11-21T01:42:38;8.20;99.90
48946;DHT22;34999;50.940;3.998;2023-11-21T01:45:07;8.20;99.90
48946;DHT22;34999;50.940;3.998;2023-11-21T01:47:36;8.20;99.90
48946;DHT22;34999;50.940;3.998;2023-11-21T01:50:07;8.10;99.90
48946;DHT22;34999;50.940;3.998;2023-11-21T01:52:39;8.10;99.90
48946;DHT22;34999;50.940;3.998;2023-11-21T01:55:09;8.10;99.90
48946;DHT22;34999;50.940;3.998;2023-11-21T01:57:39;8.10;99.90
48946;DHT22;34999;50.940;3.998;2023-11-21T02:00:08;8.10;99.90
48946;DHT22;34999;50.940;3.998;2023-11-21T02:03:01;8.10;99.90
48946;DHT22;34999;50.940;3.998;2023-11-21T02:08:54;8.10;99.90
48946;DHT22;34999;50.940;3.998;2023-11-21T02:11:22;8.20;99.90
48946;DHT22;34999;50.940;3.998;2023-11-21T02:13:52;8.20;99.90
48946;DHT22;34999;50.940;3.998;2023-11-21T02:16:21;8.20;99.90
48946;DHT22;34999;50.940;3.998;2023-11-21T02:18:49;8.20;99.90
48946;DHT22;34999;50.940;3.998;2023-11-21T02:21:19;8.20;99.90
48946;DHT22;34999;50.940;3.998;2023-11-21T02:23:48;8.20;99.90
48946;DHT22;34999;50.940;3.998;2023-11-21T02:26:18;8.20;99.90
48946;DHT22;34999;50.940;3.998;2023-11-21T02:28:47;8.20;99.90
48946;DHT22;34999;50.940;3.998;2023-11-21T02:31:15;8.20;99.90
48946;DHT22;34999;50.940;3.998;2023-11-21T02:33:43;8.20;99.90
48946;DHT22;34999;50.940;3.998;2023-11-21T02:36:12;8.20;99.90
48946;DHT22;34999;50.940;3.998;2023-11-21T02:38:41;8.20;99.90
48946;DHT22;34999;50.940;3.998;2023-11-21T02:41:11;8.20;99.90
48946;DHT22;34999;50.940;3.998;2023-11-21T02:43:40;8.20;99.90
48946;DHT22;34999;50.940;3.998;2023-11-21T02:46:08;8.20;99.90
48946;DHT22;34999;50.940;3.998;2023-11-21T02:48:37;8.20;99.90
48946;DHT22;34999;50.940;3.998;2023-11-21T02:51:05;8.20;99.90
48946;DHT22;34999;50.940;3.998;2023-11-21T02:53:33;8.30;99.90
48946;DHT22;34999;50.940;3.998;2023-11-21T02:56:02;8.30;99.90
48946;DHT22;34999;50.940;3.998;2023-11-21T02:58:31;8.30;99.90
48946;DHT22;34999;50.940;3.998;2023-11-21T03:01:00;8.30;99.90
48946;DHT22;34999;50.940;3.998;2023-11-21T03:03:28;8.30;99.90
48946;DHT22;34999;50.940;3.998;2023-11-21T03:05:57;8.30;99.90
48946;DHT22;34999;50.940;3.998;2023-11-21T03:08:25;8.30;99.90
48946;DHT22;34999;50.940;3.998;2023-11-21T03:10:53;8.30;99.90
48946;DHT22;34999;50.940;3.998;2023-11-21T03:13:21;8.30;99.90
48946;DHT22;34999;50.940;3.998;2023-11-21T03:15:51;8.30;99.90
48946;DHT22;34999;50.940;3.998;2023-11-21T03:18:19;8.30;99.90
48946;DHT22;34999;50.940;3.998;2023-11-21T03:20:49;8.30;99.90
48946;DHT22;34999;50.940;3.998;2023-11-21T03:23:17;8.30;99.90
48946;DHT22;34999;50.940;3.998;2023-11-21T03:25:45;8.30;99.90
48946;DHT22;34999;50.940;3.998;2023-11-21T03:28:13;8.30;99.90
48946;DHT22;34999;50.940;3.998;2023-11-21T03:30:42;8.30;99.90
48946;DHT22;34999;50.940;3.998;2023-11-21T03:33:11;8.30;99.90
48946;DHT22;34999;50.940;3.998;2023-11-21T03:35:40;8.30;99.90
48946;DHT22;34999;50.940;3.998;2023-11-21T03:38:11;8.30;99.90
48946;DHT22;34999;50.940;3.998;2023-11-21T03:40:40;8.30;99.90
48946;DHT22;34999;50.940;3.998;2023-11-21T03:43:08;8.30;99.90
48946;DHT22;34999;50.940;3.998;2023-11-21T03:45:37;8.30;99.90
48946;DHT22;34999;50.940;3.998;2023-11-21T03:48:07;8.30;99.90
48946;DHT22;34999;50.940;3.998;2023-11-21T03:50:37;8.30;99.90
48946;DHT22;34999;50.940;3.998;2023-11-21T03:53:05;8.30;99.90
48946;DHT22;34999;50.940;3.998;2023-11-21T03:55:33;8.30;99.90
48946;DHT22;34999;50.940;3.998;2023-11-21T03:58:02;8.30;99.90
48946;DHT22;34999;50.940;3.998;2023-11-21T04:00:31;8.30;99.90
48946;DHT22;34999;50.940;3.998;2023-11-21T04:02:59;8.30;99.90
48946;DHT22;34999;50.940;3.998;2023-11-21T04:05:28;8.30;99.90
48946;DHT22;34999;50.940;3.998;2023-11-21T04:07:57;8.40;99.90
48946;DHT22;34999;50.940;3.998;2023-11-21T04:10:26;8.30;99.90
48946;DHT22;34999;50.940;3.998;2023-11-21T04:12:54;8.30;99.90
48946;DHT22;34999;50.940;3.998;2023-11-21T04:15:22;8.30;99.90
48946;DHT22;34999;50.940;3.998;2023-11-21T04:17:50;8.30;99.90
48946;DHT22;34999;50.940;3.998;2023-11-21T04:20:19;8.30;99.90
48946;DHT22;34999;50.940;3.998;2023-11-21T04:22:47;8.30;99.90
48946;DHT22;34999;50.940;3.998;2023-11-21T04:25:17;8.30;99.90
48946;DHT22;34999;50.940;3.998;2023-11-21T04:27:45;8.40;99.90
48946;DHT22;34999;50.940;3.998;2023-11-21T04:30:14;8.40;99.90
48946;DHT22;34999;50.940;3.998;2023-11-21T04:32:42;8.40;99.90
48946;DHT22;34999;50.940;3.998;2023-11-21T04:35:11;8.40;99.90
48946;DHT22;34999;50.940;3.998;2023-11-21T04:37:39;8.40;99.90
48946;DHT22;34999;50.940;3.998;2023-11-21T04:40:08;8.40;99.90
48946;DHT22;34999;50.940;3.998;2023-11-21T04:42:38;8.40;99.90
48946;DHT22;34999;50.940;3.998;2023-11-21T04:45:07;8.50;99.90
48946;DHT22;34999;50.940;3.998;2023-11-21T04:47:38;8.50;99.90
48946;DHT22;34999;50.940;3.998;2023-11-21T04:50:07;8.50;99.90
48946;DHT22;34999;50.940;3.998;2023-11-21T04:52:35;8.50;99.90
48946;DHT22;34999;50.940;3.998;2023-11-21T04:55:04;8.50;99.90
48946;DHT22;34999;50.940;3.998;2023-11-21T04:57:33;8.50;99.90
48946;DHT22;34999;50.940;3.998;2023-11-21T05:00:02;8.50;99.90
48946;DHT22;34999;50.940;3.998;2023-11-21T05:02:33;8.50;99.90
48946;DHT22;34999;50.940;3.998;2023-11-21T05:05:02;8.50;99.90
48946;DHT22;34999;50.940;3.998;2023-11-21T05:07:33;8.50;99.90
48946;DHT22;34999;50.940;3.998;2023-11-21T05:10:04;8.40;99.90
48946;DHT22;34999;50.940;3.998;2023-11-21T05:12:35;8.50;99.90
48946;DHT22;34999;50.940;3.998;2023-11-21T05:15:07;8.50;99.90
48946;DHT22;34999;50.940;3.998;2023-11-21T05:17:36;8.50;99.90
48946;DHT22;34999;50.940;3.998;2023-11-21T05:20:07;8.50;99.90
48946;DHT22;34999;50.940;3.998;2023-11-21T05:22:37;8.40;99.90
48946;DHT22;34999;50.940;3.998;2023-11-21T05:25:06;8.40;99.90
48946;DHT22;34999;50.940;3.998;2023-11-21T05:27:35;8.40;99.90
48946;DHT22;34999;50.940;3.998;2023-11-21T05:30:06;8.50;99.90
48946;DHT22;34999;50.940;3.998;2023-11-21T05:32:36;8.50;99.90
48946;DHT22;34999;50.940;3.998;2023-11-21T05:35:05;8.40;99.90
48946;DHT22;34999;50.940;3.998;2023-11-21T05:37:36;8.40;99.90
48946;DHT22;34999;50.940;3.998;2023-11-21T05:40:06;8.40;99.90
48946;DHT22;34999;50.940;3.998;2023-11-21T05:42:35;8.40;99.90
48946;DHT22;34999;50.940;3.998;2023-11-21T05:45:06;8.40;99.90
48946;DHT22;34999;50.940;3.998;2023-11-21T05:47:38;8.40;99.90
48946;DHT22;34999;50.940;3.998;2023-11-21T05:50:09;8.40;99.90
48946;DHT22;34999;50.940;3.998;2023-11-21T05:52:44;8.50;99.90
48946;DHT22;34999;50.940;3.998;2023-11-21T05:55:13;8.50;99.90
48946;DHT22;34999;50.940;3.998;2023-11-21T05:57:43;8.50;99.90
48946;DHT22;34999;50.940;3.998;2023-11-21T06:00:14;8.50;99.90
48946;DHT22;34999;50.940;3.998;2023-11-21T06:02:49;8.50;99.90
48946;DHT22;34999;50.940;3.998;2023-11-21T06:05:21;8.60;99.90
48946;DHT22;34999;50.940;3.998;2023-11-21T06:07:50;8.60;99.90
48946;DHT22;34999;50.940;3.998;2023-11-21T06:10:20;8.60;99.90
48946;DHT22;34999;50.940;3.998;2023-11-21T06:12:51;8.60;99.90
48946;DHT22;34999;50.940;3.998;2023-11-21T06:15:21;8.70;99.90
48946;DHT22;34999;50.940;3.998;2023-11-21T06:17:51;8.70;99.90
48946;DHT22;34999;50.940;3.998;2023-11-21T06:20:21;8.70;99.90
48946;DHT22;34999;50.940;3.998;2023-11-21T06:22:50;8.70;99.90
48946;DHT22;34999;50.940;3.998;2023-11-21T06:25:19;8.70;99.90
48946;DHT22;34999;50.940;3.998;2023-11-21T06:27:48;8.70;99.90
48946;DHT22;34999;50.940;3.998;2023-11-21T06:30:17;8.70;99.90
48946;DHT22;34999;50.940;3.998;2023-11-21T06:32:48;8.60;99.90
48946;DHT22;34999;50.940;3.998;2023-11-21T06:35:18;8.70;99.90
48946;DHT22;34999;50.940;3.998;2023-11-21T06:37:47;8.70;99.90
48946;DHT22;34999;50.940;3.998;2023-11-21T06:40:17;8.70;99.90
48946;DHT22;34999;50.940;3.998;2023-11-21T06:42:47;8.70;99.90
48946;DHT22;34999;50.940;3.998;2023-11-21T06:45:17;8.70;99.90
48946;DHT22;34999;50.940;3.998;2023-11-21T06:47:45;8.80;99.90
48946;DHT22;34999;50.940;3.998;2023-11-21T06:50:15;8.80;99.90
48946;DHT22;34999;50.940;3.998;2023-11-21T06:52:43;8.80;99.90
48946;DHT22;34999;50.940;3.998;2023-11-21T06:55:12;8.80;99.90
48946;DHT22;34999;50.940;3.998;2023-11-21T06:57:40;8.90;99.90
48946;DHT22;34999;50.940;3.998;2023-11-21T07:00:09;8.90;99.90
48946;DHT22;34999;50.940;3.998;2023-11-21T07:02:38;8.90;99.90
48946;DHT22;34999;50.940;3.998;2023-11-21T07:05:07;8.90;99.90
48946;DHT22;34999;50.940;3.998;2023-11-21T07:07:37;8.90;99.90
48946;DHT22;34999;50.940;3.998;2023-11-21T07:10:06;8.90;99.90
48946;DHT22;34999;50.940;3.998;2023-11-21T07:12:36;9.00;99.90
48946;DHT22;34999;50.940;3.998;2023-11-21T07:15:05;9.00;99.90
48946;DHT22;34999;50.940;3.998;2023-11-21T07:17:36;9.10;99.90
48946;DHT22;34999;50.940;3.998;2023-11-21T07:20:08;9.10;99.90
48946;DHT22;34999;50.940;3.998;2023-11-21T07:22:39;9.10;99.90
48946;DHT22;34999;50.940;3.998;2023-11-21T07:25:08;9.10;99.90
48946;DHT22;34999;50.940;3.998;2023-11-21T07:27:37;9.10;99.90
48946;DHT22;34999;50.940;3.998;2023-11-21T07:30:06;9.10;99.90
48946;DHT22;34999;50.940;3.998;2023-11-21T07:32:37;9.20;99.90
48946;DHT22;34999;50.940;3.998;2023-11-21T07:35:08;9.20;99.90
48946;DHT22;34999;50.940;3.998;2023-11-21T07:37:38;9.20;99.90
48946;DHT22;34999;50.940;3.998;2023-11-21T07:40:07;9.30;99.90
48946;DHT22;34999;50.940;3.998;2023-11-21T07:42:36;9.30;99.90
48946;DHT22;34999;50.940;3.998;2023-11-21T07:45:05;9.30;99.90
48946;DHT22;34999;50.940;3.998;2023-11-21T07:47:35;9.30;99.90
48946;DHT22;34999;50.940;3.998;2023-11-21T07:50:04;9.30;99.90
48946;DHT22;34999;50.940;3.998;2023-11-21T07:52:34;9.40;99.90
48946;DHT22;34999;50.940;3.998;2023-11-21T07:55:05;9.40;99.90
48946;DHT22;34999;50.940;3.998;2023-11-21T07:57:34;9.40;99.90
48946;DHT22;34999;50.940;3.998;2023-11-21T08:00:03;9.50;99.90
48946;DHT22;34999;50.940;3.998;2023-11-21T08:02:33;9.50;99.90
48946;DHT22;34999;50.940;3.998;2023-11-21T08:05:01;9.60;99.90
48946;DHT22;34999;50.940;3.998;2023-11-21T08:07:32;9.60;99.90
48946;DHT22;34999;50.940;3.998;2023-11-21T08:10:22;9.60;99.90
48946;DHT22;34999;50.940;3.998;2023-11-21T08:13:10;9.70;99.90
48946;DHT22;34999;50.940;3.998;2023-11-21T08:16:02;9.70;99.90
48946;DHT22;34999;50.940;3.998;2023-11-21T08:18:31;9.70;99.90
48946;DHT22;34999;50.940;3.998;2023-11-21T08:21:01;9.70;99.90
48946;DHT22;34999;50.940;3.998;2023-11-21T08:23:30;9.70;99.90
48946;DHT22;34999;50.940;3.998;2023-11-21T08:26:00;9.70;99.90
48946;DHT22;34999;50.940;3.998;2023-11-21T08:28:35;9.80;99.90
48946;DHT22;34999;50.940;3.998;2023-11-21T08:31:04;9.80;99.90
48946;DHT22;34999;50.940;3.998;2023-11-21T08:33:32;9.80;99.90
48946;DHT22;34999;50.940;3.998;2023-11-21T08:36:00;9.80;99.90
48946;DHT22;34999;50.940;3.998;2023-11-21T08:38:29;9.80;99.90
48946;DHT22;34999;50.940;3.998;2023-11-21T08:40:57;9.80;99.90
48946;DHT22;34999;50.940;3.998;2023-11-21T08:43:27;9.80;99.90
48946;DHT22;34999;50.940;3.998;2023-11-21T08:45:56;9.80;99.90
48946;DHT22;34999;50.940;3.998;2023-11-21T08:48:24;9.80;99.90
48946;DHT22;34999;50.940;3.998;2023-11-21T08:50:55;9.80;99.90
48946;DHT22;34999;50.940;3.998;2023-11-21T08:53:23;9.80;99.90
48946;DHT22;34999;50.940;3.998;2023-11-21T08:55:53;9.80;99.90
48946;DHT22;34999;50.940;3.998;2023-11-21T08:58:21;9.90;99.90
48946;DHT22;34999;50.940;3.998;2023-11-21T09:00:51;9.90;99.90
48946;DHT22;34999;50.940;3.998;2023-11-21T09:03:19;9.90;99.90
48946;DHT22;34999;50.940;3.998;2023-11-21T09:06:09;9.90;99.90
48946;DHT22;34999;50.940;3.998;2023-11-21T09:08:37;10.00;99.90
48946;DHT22;34999;50.940;3.998;2023-11-21T09:11:25;10.10;99.90
48946;DHT22;34999;50.940;3.998;2023-11-21T09:14:00;10.20;99.90
48946;DHT22;34999;50.940;3.998;2023-11-21T09:16:30;10.20;99.90
48946;DHT22;34999;50.940;3.998;2023-11-21T09:18:58;10.20;99.90
48946;DHT22;34999;50.940;3.998;2023-11-21T09:21:28;10.30;99.90
48946;DHT22;34999;50.940;3.998;2023-11-21T09:23:57;10.30;99.90
48946;DHT22;34999;50.940;3.998;2023-11-21T09:26:27;10.40;99.90
48946;DHT22;34999;50.940;3.998;2023-11-21T09:28:56;10.50;99.90
48946;DHT22;34999;50.940;3.998;2023-11-21T09:31:25;10.50;99.90
48946;DHT22;34999;50.940;3.998;2023-11-21T09:33:56;10.40;99.90
48946;DHT22;34999;50.940;3.998;2023-11-21T09:36:24;10.40;99.90
48946;DHT22;34999;50.940;3.998;2023-11-21T09:39:15;10.50;99.90
48946;DHT22;34999;50.940;3.998;2023-11-21T09:41:49;10.50;99.90
48946;DHT22;34999;50.940;3.998;2023-11-21T09:44:18;10.60;99.90
48946;DHT22;34999;50.940;3.998;2023-11-21T09:46:51;10.70;99.90
48946;DHT22;34999;50.940;3.998;2023-11-21T09:49:23;10.80;99.90
48946;DHT22;34999;50.940;3.998;2023-11-21T09:51:55;10.90;99.90
48946;DHT22;34999;50.940;3.998;2023-11-21T09:54:24;11.00;99.90
48946;DHT22;34999;50.940;3.998;2023-11-21T09:56:53;11.10;99.90
48946;DHT22;34999;50.940;3.998;2023-11-21T09:59:41;11.20;99.90
48946;DHT22;34999;50.940;3.998;2023-11-21T10:02:31;11.40;99.90
48946;DHT22;34999;50.940;3.998;2023-11-21T10:05:05;11.40;99.90
48946;DHT22;34999;50.940;3.998;2023-11-21T10:07:34;11.50;99.90
48946;DHT22;34999;50.940;3.998;2023-11-21T10:10:05;11.60;99.90
48946;DHT22;34999;50.940;3.998;2023-11-21T10:12:36;11.70;99.90
48946;DHT22;34999;50.940;3.998;2023-11-21T10:15:08;11.80;99.90
48946;DHT22;34999;50.940;3.998;2023-11-21T10:21:05;12.20;99.90
48946;DHT22;34999;50.940;3.998;2023-11-21T10:23:34;12.50;99.90
48946;DHT22;34999;50.940;3.998;2023-11-21T10:26:03;12.50;99.90
48946;DHT22;34999;50.940;3.998;2023-11-21T10:28:55;12.50;99.90
48946;DHT22;34999;50.940;3.998;2023-11-21T10:31:25;12.10;99.90
48946;DHT22;34999;50.940;3.998;2023-11-21T10:33:53;12.00;99.90
48946;DHT22;34999;50.940;3.998;2023-11-21T10:36:42;12.20;99.90
48946;DHT22;34999;50.940;3.998;2023-11-21T10:42:18;12.30;99.90
48946;DHT22;34999;50.940;3.998;2023-11-21T10:44:47;12.30;99.90
48946;DHT22;34999;50.940;3.998;2023-11-21T10:47:18;12.50;99.90
48946;DHT22;34999;50.940;3.998;2023-11-21T10:49:51;12.60;99.90
48946;DHT22;34999;50.940;3.998;2023-11-21T10:52:22;12.70;99.90
48946;DHT22;34999;50.940;3.998;2023-11-21T10:54:57;12.50;99.90
48946;DHT22;34999;50.940;3.998;2023-11-21T10:57:26;12.30;99.90
48946;DHT22;34999;50.940;3.998;2023-11-21T10:59:54;12.20;99.90
48946;DHT22;34999;50.940;3.998;2023-11-21T11:02:24;12.10;99.90
48946;DHT22;34999;50.940;3.998;2023-11-21T11:04:56;11.90;99.90
48946;DHT22;34999;50.940;3.998;2023-11-21T11:07:27;11.80;99.90
48946;DHT22;34999;50.940;3.998;2023-11-21T11:13:20;11.60;99.90
48946;DHT22;34999;50.940;3.998;2023-11-21T11:22:47;11.50;99.90
48946;DHT22;34999;50.940;3.998;2023-11-21T11:25:30;11.60;99.90
48946;DHT22;34999;50.940;3.998;2023-11-21T11:28:07;11.70;99.90
48946;DHT22;34999;50.940;3.998;2023-11-21T11:30:54;11.70;99.90
48946;DHT22;34999;50.940;3.998;2023-11-21T11:33:36;11.80;99.90
48946;DHT22;34999;50.940;3.998;2023-11-21T11:36:08;11.80;99.90
48946;DHT22;34999;50.940;3.998;2023-11-21T11:39:00;11.90;99.90
48946;DHT22;34999;50.940;3.998;2023-11-21T11:41:31;12.10;99.90
48946;DHT22;34999;50.940;3.998;2023-11-21T11:47:31;12.60;99.90
48946;DHT22;34999;50.940;3.998;2023-11-21T11:50:03;12.70;99.90
48946;DHT22;34999;50.940;3.998;2023-11-21T11:52:36;12.60;99.90
48946;DHT22;34999;50.940;3.998;2023-11-21T11:55:08;12.50;99.90
48946;DHT22;34999;50.940;3.998;2023-11-21T11:57:41;12.40;99.90
48946;DHT22;34999;50.940;3.998;2023-11-21T12:00:17;12.30;99.90
48946;DHT22;34999;50.940;3.998;2023-11-21T12:02:49;12.30;99.90
48946;DHT22;34999;50.940;3.998;2023-11-21T12:05:19;12.30;99.90
48946;DHT22;34999;50.940;3.998;2023-11-21T12:07:50;12.10;99.90
48946;DHT22;34999;50.940;3.998;2023-11-21T12:10:22;11.90;99.90
48946;DHT22;34999;50.940;3.998;2023-11-21T12:12:53;11.80;99.90
48946;DHT22;34999;50.940;3.998;2023-11-21T12:15:21;11.70;99.90
48946;DHT22;34999;50.940;3.998;2023-11-21T12:17:50;11.70;99.90
48946;DHT22;34999;50.940;3.998;2023-11-21T12:20:20;11.60;99.90
48946;DHT22;34999;50.940;3.998;2023-11-21T12:22:50;11.50;99.90
48946;DHT22;34999;50.940;3.998;2023-11-21T12:25:21;11.40;99.90
48946;DHT22;34999;50.940;3.998;2023-11-21T12:27:51;11.50;99.90
48946;DHT22;34999;50.940;3.998;2023-11-21T12:30:21;11.60;99.90
48946;DHT22;34999;50.940;3.998;2023-11-21T12:32:50;11.60;99.90
48946;DHT22;34999;50.940;3.998;2023-11-21T12:35:21;11.60;99.90
48946;DHT22;34999;50.940;3.998;2023-11-21T12:37:50;11.60;99.90
48946;DHT22;34999;50.940;3.998;2023-11-21T12:40:20;11.60;99.90
48946;DHT22;34999;50.940;3.998;2023-11-21T12:42:52;11.50;99.90
48946;DHT22;34999;50.940;3.998;2023-11-21T12:45:22;11.50;99.90
48946;DHT22;34999;50.940;3.998;2023-11-21T12:47:55;11.60;99.90
48946;DHT22;34999;50.940;3.998;2023-11-21T12:50:28;11.60;99.90
48946;DHT22;34999;50.940;3.998;2023-11-21T12:53:00;11.60;99.90
48946;DHT22;34999;50.940;3.998;2023-11-21T12:55:32;11.60;99.90
48946;DHT22;34999;50.940;3.998;2023-11-21T12:58:05;11.60;99.90
48946;DHT22;34999;50.940;3.998;2023-11-21T13:00:37;11.60;99.90
48946;DHT22;34999;50.940;3.998;2023-11-21T13:03:06;11.60;99.90
48946;DHT22;34999;50.940;3.998;2023-11-21T13:05:36;11.60;99.90
48946;DHT22;34999;50.940;3.998;2023-11-21T13:08:06;11.50;99.90
48946;DHT22;34999;50.940;3.998;2023-11-21T13:10:39;11.50;99.90
48946;DHT22;34999;50.940;3.998;2023-11-21T13:13:11;11.40;99.90
48946;DHT22;34999;50.940;3.998;2023-11-21T13:15:50;11.40;99.90
48946;DHT22;34999;50.940;3.998;2023-11-21T13:18:19;11.40;99.90
48946;DHT22;34999;50.940;3.998;2023-11-21T13:20:49;11.40;99.90
48946;DHT22;34999;50.940;3.998;2023-11-21T13:23:17;11.30;99.90
48946;DHT22;34999;50.940;3.998;2023-11-21T13:25:47;11.30;99.90
48946;DHT22;34999;50.940;3.998;2023-11-21T13:28:28;11.20;99.90
48946;DHT22;34999;50.940;3.998;2023-11-21T13:31:00;11.30;99.90
48946;DHT22;34999;50.940;3.998;2023-11-21T13:33:37;11.20;99.90
48946;DHT22;34999;50.940;3.998;2023-11-21T13:36:06;11.10;99.90
48946;DHT22;34999;50.940;3.998;2023-11-21T13:38:36;11.10;99.90
48946;DHT22;34999;50.940;3.998;2023-11-21T13:41:11;11.10;99.90
48946;DHT22;34999;50.940;3.998;2023-11-21T13:43:41;11.10;99.90
48946;DHT22;34999;50.940;3.998;2023-11-21T13:46:17;11.10;99.90
48946;DHT22;34999;50.940;3.998;2023-11-21T13:48:49;11.00;99.90
48946;DHT22;34999;50.940;3.998;2023-11-21T13:51:23;11.00;99.90
48946;DHT22;34999;50.940;3.998;2023-11-21T13:54:01;11.00;99.90
48946;DHT22;34999;50.940;3.998;2023-11-21T13:56:30;11.00;99.90
48946;DHT22;34999;50.940;3.998;2023-11-21T13:58:59;11.00;99.90
48946;DHT22;34999;50.940;3.998;2023-11-21T14:01:36;10.90;99.90
48946;DHT22;34999;50.940;3.998;2023-11-21T14:04:22;10.90;99.90
48946;DHT22;34999;50.940;3.998;2023-11-21T14:07:06;10.90;99.90
48946;DHT22;34999;50.940;3.998;2023-11-21T14:09:50;10.90;99.90
48946;DHT22;34999;50.940;3.998;2023-11-21T14:12:21;10.90;99.90
48946;DHT22;34999;50.940;3.998;2023-11-21T14:14:50;10.80;99.90
48946;DHT22;34999;50.940;3.998;2023-11-21T14:17:18;10.80;99.90
48946;DHT22;34999;50.940;3.998;2023-11-21T14:19:49;10.80;99.90
48946;DHT22;34999;50.940;3.998;2023-11-21T14:22:18;10.80;99.90
48946;DHT22;34999;50.940;3.998;2023-11-21T14:24:47;10.80;99.90
48946;DHT22;34999;50.940;3.998;2023-11-21T14:27:17;10.70;99.90
48946;DHT22;34999;50.940;3.998;2023-11-21T14:29:47;10.60;99.90
48946;DHT22;34999;50.940;3.998;2023-11-21T14:32:15;10.60;99.90
48946;DHT22;34999;50.940;3.998;2023-11-21T14:34:44;10.60;99.90
48946;DHT22;34999;50.940;3.998;2023-11-21T14:37:14;10.50;99.90
48946;DHT22;34999;50.940;3.998;2023-11-21T14:39:43;10.50;99.90
48946;DHT22;34999;50.940;3.998;2023-11-21T14:42:14;10.50;99.90
48946;DHT22;34999;50.940;3.998;2023-11-21T14:44:43;10.50;99.90
48946;DHT22;34999;50.940;3.998;2023-11-21T14:47:13;10.50;99.90
48946;DHT22;34999;50.940;3.998;2023-11-21T14:49:44;10.40;99.90
48946;DHT22;34999;50.940;3.998;2023-11-21T14:52:21;10.40;99.90
48946;DHT22;34999;50.940;3.998;2023-11-21T14:55:03;10.40;99.90
48946;DHT22;34999;50.940;3.998;2023-11-21T14:57:58;10.30;99.90
48946;DHT22;34999;50.940;3.998;2023-11-21T15:00:30;10.40;99.90
48946;DHT22;34999;50.940;3.998;2023-11-21T15:03:09;10.40;99.90
48946;DHT22;34999;50.940;3.998;2023-11-21T15:05:38;10.30;99.90
48946;DHT22;34999;50.940;3.998;2023-11-21T15:08:07;10.30;99.90
48946;DHT22;34999;50.940;3.998;2023-11-21T15:10:48;10.30;99.90
48946;DHT22;34999;50.940;3.998;2023-11-21T15:13:21;10.30;99.90
48946;DHT22;34999;50.940;3.998;2023-11-21T15:15:51;10.30;99.90
48946;DHT22;34999;50.940;3.998;2023-11-21T15:18:22;10.40;99.90
48946;DHT22;34999;50.940;3.998;2023-11-21T15:20:51;10.30;99.90
48946;DHT22;34999;50.940;3.998;2023-11-21T15:23:20;10.30;99.90
48946;DHT22;34999;50.940;3.998;2023-11-21T15:25:48;10.30;99.90
48946;DHT22;34999;50.940;3.998;2023-11-21T15:28:17;10.30;99.90
48946;DHT22;34999;50.940;3.998;2023-11-21T15:30:46;10.30;99.90
48946;DHT22;34999;50.940;3.998;2023-11-21T15:33:18;10.30;99.90
48946;DHT22;34999;50.940;3.998;2023-11-21T15:35:48;10.20;99.90
48946;DHT22;34999;50.940;3.998;2023-11-21T15:38:16;10.20;99.90
48946;DHT22;34999;50.940;3.998;2023-11-21T15:40:45;10.20;99.90
48946;DHT22;34999;50.940;3.998;2023-11-21T15:43:13;10.20;99.90
48946;DHT22;34999;50.940;3.998;2023-11-21T15:45:42;10.20;99.90
48946;DHT22;34999;50.940;3.998;2023-11-21T15:48:11;10.20;99.90
48946;DHT22;34999;50.940;3.998;2023-11-21T15:50:39;10.20;99.90
48946;DHT22;34999;50.940;3.998;2023-11-21T15:53:09;10.20;99.90
48946;DHT22;34999;50.940;3.998;2023-11-21T15:55:37;10.20;99.90
48946;DHT22;34999;50.940;3.998;2023-11-21T15:58:09;10.20;99.90
48946;DHT22;34999;50.940;3.998;2023-11-21T16:00:37;10.20;99.90
48946;DHT22;34999;50.940;3.998;2023-11-21T16:03:06;10.20;99.90
48946;DHT22;34999;50.940;3.998;2023-11-21T16:05:36;10.20;99.90
48946;DHT22;34999;50.940;3.998;2023-11-21T16:08:04;10.20;99.90
48946;DHT22;34999;50.940;3.998;2023-11-21T16:10:34;10.10;99.90
48946;DHT22;34999;50.940;3.998;2023-11-21T16:13:03;10.10;99.90
48946;DHT22;34999;50.940;3.998;2023-11-21T16:15:33;10.20;99.90
48946;DHT22;34999;50.940;3.998;2023-11-21T16:18:01;10.10;99.90
48946;DHT22;34999;50.940;3.998;2023-11-21T16:20:29;10.10;99.90
48946;DHT22;34999;50.940;3.998;2023-11-21T16:22:58;10.10;99.90
48946;DHT22;34999;50.940;3.998;2023-11-21T16:25:26;10.10;99.90
48946;DHT22;34999;50.940;3.998;2023-11-21T16:27:55;10.10;99.90